KLEB

Lebanon Municipal Airport

Lebanon, New Hampshire, USA
METAR KLEB 211642Z 31011G17KT 2 1/2SM UP BKN030 OVC039 M18/M25 A2982 RMK AO2 UPB12E27B38SNE12B13E15 P0000 T11831250
Observed Flight Rules
Jan-21 @ 16:42 UTC (8 minutes ago) Instrument Flight Rules
Wind Visibility Clouds Conditions
310° at 11 knots
 Gusting to 17 knots
2 1/2 miles
  • Broken at 3,000' AGL
  • Overcast at 3,900' AGL
  • Unknown precipitation
Temperatures Readings Precipitation
Current -18°C / -0°F
Dewpoint -25°C / -13°F
Humidity 54%
Altimeter 29.82" Hg
Pressure 1009.82 hPa
Elevation 171
Current Rain 0.01
METAR KLEB 211642Z 31011G17KT 2 1/2SM UP BKN030 OVC039 M18/M25 A2982 RMK AO2 UPB12E27B38SNE12B13E15 P0000 T11831250
Observed Flight Rules
Jan-21 @ 16:42 UTC
(8 minutes ago)
IFR
Wind Visibility
310° at 11 knots
 Gusting to 17 knots
2 1/2 miles
Clouds
  • Broken at 3,000' AGL
  • Overcast at 3,900' AGL
Conditions
  • Unknown precipitation
Temperature Dewpoint
-18°C / -0°F -25°C / -13°F
Humidity Altimeter Pressure
54% 29.82" Hg 1009.82 hPa
Current Rain
0.01